createdAt,value
2017-02-06T00:00:50.867Z,0
2017-02-06T00:01:50.802Z,0
2017-02-06T00:02:50.740Z,0
2017-02-06T00:03:50.673Z,0
2017-02-06T00:04:50.614Z,0
2017-02-06T00:05:50.545Z,0
2017-02-06T00:06:50.486Z,0
2017-02-06T00:07:50.425Z,0
2017-02-06T00:08:50.361Z,0
2017-02-06T00:09:50.295Z,0
2017-02-06T00:10:49.842Z,0
2017-02-06T00:11:51.375Z,0
2017-02-06T00:12:50.107Z,0
2017-02-06T00:13:50.045Z,0
2017-02-06T00:14:49.988Z,0
2017-02-06T00:15:49.927Z,0
2017-02-06T00:16:49.857Z,0
2017-02-06T00:17:49.404Z,0
2017-02-06T00:18:49.338Z,0
2017-02-06T00:19:49.667Z,0
2017-02-06T00:20:49.213Z,0
2017-02-06T00:21:49.543Z,0
2017-02-06T00:22:49.476Z,0
2017-02-06T00:23:49.417Z,0
2017-02-06T00:24:49.359Z,0
2017-02-06T00:25:49.282Z,0
2017-02-06T00:26:49.226Z,0
2017-02-06T00:27:49.417Z,0
2017-02-06T00:28:49.099Z,0
2017-02-06T00:29:49.038Z,0
2017-02-06T00:30:48.974Z,0
2017-02-06T00:31:48.912Z,0
2017-02-06T00:32:48.847Z,0
2017-02-06T00:33:48.781Z,0
2017-02-06T00:34:48.718Z,0
2017-02-06T00:35:48.660Z,0
2017-02-06T00:36:48.597Z,0
2017-02-06T00:37:48.528Z,0
2017-02-06T00:38:48.470Z,0
2017-02-06T00:39:48.402Z,0
2017-02-06T00:40:48.341Z,0
2017-02-06T00:41:48.281Z,0
2017-02-06T00:42:48.217Z,0
2017-02-06T00:43:48.352Z,0
2017-02-06T00:44:48.090Z,0
2017-02-06T00:45:48.034Z,0
2017-02-06T00:46:47.966Z,0
2017-02-06T00:47:47.905Z,0
2017-02-06T00:48:47.839Z,0
2017-02-06T00:49:47.778Z,0
2017-02-06T00:50:47.713Z,0
2017-02-06T00:51:47.658Z,0
2017-02-06T00:52:47.586Z,0
2017-02-06T00:53:47.133Z,0
2017-02-06T00:54:47.074Z,0
2017-02-06T00:55:47.393Z,0
2017-02-06T00:56:47.333Z,0
2017-02-06T00:57:47.277Z,0
2017-02-06T00:58:46.815Z,0
2017-02-06T00:59:46.787Z,0
2017-02-06T01:01:36.910Z,0
2017-02-06T01:02:17.990Z,0
2017-02-06T01:03:17.927Z,0
2017-02-06T01:04:17.901Z,0
2017-02-06T01:05:17.802Z,0
2017-02-06T01:06:17.744Z,0
2017-02-06T01:07:17.687Z,0
2017-02-06T01:08:16.925Z,0
2017-02-06T01:09:18.003Z,0
2017-02-06T01:10:17.740Z,0
2017-02-06T01:11:16.256Z,0
2017-02-06T01:12:17.399Z,0
2017-02-06T01:13:17.298Z,0
2017-02-06T01:14:16.843Z,0
2017-02-06T01:15:16.784Z,0
2017-02-06T01:16:17.007Z,0
2017-02-06T01:17:16.674Z,0
2017-02-06T01:18:16.591Z,0
2017-02-06T01:19:16.522Z,0
2017-02-06T01:20:16.878Z,0
2017-02-06T01:21:16.799Z,0
2017-02-06T01:22:16.333Z,0
2017-02-06T01:23:16.560Z,0
2017-02-06T01:24:16.211Z,0
2017-02-06T01:25:16.541Z,0
2017-02-06T01:26:16.099Z,0
2017-02-06T01:27:16.443Z,0
2017-02-06T01:28:16.351Z,0
2017-02-06T01:29:16.285Z,0
2017-02-06T01:30:15.049Z,0
2017-02-06T01:31:15.764Z,0
2017-02-06T01:32:15.318Z,0
2017-02-06T01:33:15.639Z,0
2017-02-06T01:34:15.577Z,0
2017-02-06T01:35:15.412Z,0
2017-02-06T01:36:15.846Z,0
2017-02-06T01:37:15.396Z,0
2017-02-06T01:38:15.328Z,0
2017-02-06T01:39:15.658Z,0
2017-02-06T01:40:15.605Z,0
2017-02-06T01:41:15.155Z,0
2017-02-06T01:42:15.076Z,0
2017-02-06T01:43:15.404Z,0
2017-02-06T01:44:14.954Z,0
2017-02-06T01:45:15.273Z,0
2017-02-06T01:46:14.819Z,0
2017-02-06T01:47:15.146Z,0
2017-02-06T01:48:14.303Z,0
2017-02-06T01:49:14.631Z,0
2017-02-06T01:50:14.959Z,0
2017-02-06T01:51:14.506Z,0
2017-02-06T01:52:14.048Z,0
2017-02-06T01:53:14.767Z,0
2017-02-06T01:54:14.717Z,0
2017-02-06T01:55:14.639Z,0
2017-02-06T01:56:14.194Z,0
2017-02-06T01:57:14.516Z,0
2017-02-06T01:58:14.454Z,0
2017-02-06T01:59:14.001Z,0
2017-02-06T02:00:13.158Z,0
2017-02-06T02:01:13.873Z,0
2017-02-06T02:02:13.810Z,0
2017-02-06T02:03:14.140Z,0
2017-02-06T02:04:13.395Z,0
2017-02-06T02:05:13.623Z,0
2017-02-06T02:06:13.949Z,0
2017-02-06T02:07:13.496Z,0
2017-02-06T02:08:13.823Z,0
2017-02-06T02:09:13.376Z,0
2017-02-06T02:10:13.306Z,0
2017-02-06T02:11:13.245Z,0
2017-02-06T02:12:13.179Z,0
2017-02-06T02:13:12.727Z,0
2017-02-06T02:14:13.441Z,0
2017-02-06T02:15:13.531Z,0
2017-02-06T02:16:12.980Z,0
2017-02-06T02:17:13.254Z,0
2017-02-06T02:18:12.413Z,0
2017-02-06T02:19:12.357Z,0
2017-02-06T02:20:13.360Z,0
2017-02-06T02:21:13.007Z,0
2017-02-06T02:22:12.936Z,0
2017-02-06T02:23:12.094Z,0
2017-02-06T02:24:12.152Z,0
2017-02-06T02:25:12.369Z,0
2017-02-06T02:26:12.297Z,0
2017-02-06T02:27:12.238Z,0
2017-02-06T02:28:12.558Z,0
2017-02-06T02:29:12.496Z,0
2017-02-06T02:30:12.048Z,0
2017-02-06T02:31:12.370Z,0
2017-02-06T02:32:11.532Z,0
2017-02-06T02:33:11.468Z,0
2017-02-06T02:34:12.188Z,0
2017-02-06T02:35:12.475Z,0
2017-02-06T02:36:11.273Z,0
2017-02-06T02:37:11.212Z,0
2017-02-06T02:38:11.205Z,0
2017-02-06T02:39:11.871Z,0
2017-02-06T02:40:11.415Z,0
2017-02-06T02:41:11.394Z,0
2017-02-06T02:42:11.674Z,0
2017-02-06T02:43:11.223Z,0
2017-02-06T02:44:11.550Z,0
2017-02-06T02:45:11.559Z,0
2017-02-06T02:46:11.035Z,0
2017-02-06T02:47:10.969Z,0
2017-02-06T02:48:10.919Z,0
2017-02-06T02:49:11.254Z,0
2017-02-06T02:50:11.187Z,0
2017-02-06T02:51:11.112Z,0
2017-02-06T02:52:10.658Z,0
2017-02-06T02:53:11.279Z,0
2017-02-06T02:54:10.550Z,0
2017-02-06T02:55:10.863Z,0
2017-02-06T02:56:10.402Z,0
2017-02-06T02:57:10.625Z,0
2017-02-06T02:58:10.665Z,0
2017-02-06T02:59:09.824Z,0
2017-02-06T03:00:10.552Z,0
2017-02-06T03:01:10.500Z,0
2017-02-06T03:02:10.029Z,0
2017-02-06T03:03:10.357Z,0
2017-02-06T03:04:09.914Z,0
2017-02-06T03:05:24.201Z,0
2017-02-06T03:06:10.453Z,0
2017-02-06T03:07:09.711Z,0
2017-02-06T03:08:09.661Z,0
2017-02-06T03:09:09.584Z,0
2017-02-06T03:10:09.910Z,0
2017-02-06T03:11:09.458Z,0
2017-02-06T03:12:08.617Z,0
2017-02-06T03:13:09.039Z,0
2017-02-06T03:14:09.268Z,0
2017-02-06T03:15:09.851Z,0
2017-02-06T03:16:09.140Z,0
2017-02-06T03:17:08.329Z,0
2017-02-06T03:18:09.715Z,0
2017-02-06T03:19:08.970Z,0
2017-02-06T03:21:08.829Z,0
2017-02-06T03:22:08.029Z,0
2017-02-06T03:23:09.095Z,0
2017-02-06T03:24:09.034Z,0
2017-02-06T03:25:08.235Z,0
2017-02-06T03:26:08.527Z,0
2017-02-06T03:27:08.466Z,0
2017-02-06T03:28:08.381Z,0
2017-02-06T03:29:07.932Z,0
2017-02-06T03:30:07.482Z,0
2017-02-06T03:31:08.630Z,0
2017-02-06T03:32:08.132Z,0
2017-02-06T03:33:08.461Z,0
2017-02-06T03:34:08.127Z,0
2017-02-06T03:35:08.338Z,0
2017-02-06T03:36:07.890Z,0
2017-02-06T03:37:07.816Z,0
2017-02-06T03:38:07.768Z,0
2017-02-06T03:39:07.897Z,0
2017-02-06T03:40:08.169Z,0
2017-02-06T03:41:07.172Z,0
2017-02-06T03:42:07.890Z,0
2017-02-06T03:43:07.827Z,0
2017-02-06T03:44:07.376Z,0
2017-02-06T03:45:07.311Z,0
2017-02-06T03:46:07.640Z,0
2017-02-06T03:47:07.861Z,0
2017-02-06T03:48:07.512Z,0
2017-02-06T03:49:07.443Z,0
2017-02-06T03:50:07.012Z,0
2017-02-06T03:51:07.040Z,0
2017-02-06T03:52:06.484Z,0
2017-02-06T03:53:07.211Z,0
2017-02-06T03:54:07.152Z,0
2017-02-06T03:55:06.717Z,0
2017-02-06T03:56:06.915Z,0
2017-02-06T03:57:06.552Z,0
2017-02-06T03:58:06.491Z,0
2017-02-06T03:59:06.475Z,0
2017-02-06T04:00:06.369Z,0
2017-02-06T04:01:05.914Z,0
2017-02-06T04:02:06.627Z,0
2017-02-06T04:03:06.177Z,0
2017-02-06T04:04:06.509Z,0
2017-02-06T04:05:05.698Z,0
2017-02-06T04:06:05.597Z,0
2017-02-06T04:07:06.317Z,0
2017-02-06T04:08:05.469Z,0
2017-02-06T04:09:05.802Z,0
2017-02-06T04:10:05.935Z,0
2017-02-06T04:11:05.673Z,0
2017-02-06T04:12:05.613Z,0
2017-02-06T04:13:05.938Z,0
2017-02-06T04:14:05.088Z,0
2017-02-06T04:15:05.429Z,0
2017-02-06T04:16:05.747Z,0
2017-02-06T04:17:05.294Z,0
2017-02-06T04:18:05.628Z,0
2017-02-06T04:19:05.165Z,0
2017-02-06T04:20:04.710Z,0
2017-02-06T04:21:04.659Z,0
2017-02-06T04:22:05.365Z,0
2017-02-06T04:23:04.139Z,0
2017-02-06T04:24:04.893Z,0
2017-02-06T04:25:04.410Z,0
2017-02-06T04:26:04.338Z,0
2017-02-06T04:27:04.666Z,0
2017-02-06T04:28:05.004Z,0
2017-02-06T04:29:04.537Z,0
2017-02-06T04:30:04.471Z,0
2017-02-06T04:31:04.026Z,0
2017-02-06T04:32:04.740Z,0
2017-02-06T04:33:04.286Z,0
2017-02-06T04:34:04.626Z,0
2017-02-06T04:35:04.544Z,0
2017-02-06T04:36:03.703Z,0
2017-02-06T04:37:04.420Z,0
2017-02-06T04:38:04.362Z,0
2017-02-06T04:39:03.513Z,0
2017-02-06T04:40:03.839Z,0
2017-02-06T04:41:04.170Z,0
2017-02-06T04:42:04.130Z,0
2017-02-06T04:43:03.296Z,0
2017-02-06T04:44:03.602Z,0
2017-02-06T04:45:03.153Z,0
2017-02-06T04:46:03.479Z,0
2017-02-06T04:47:03.394Z,0
2017-02-06T04:48:02.944Z,0
2017-02-06T04:49:03.660Z,0
2017-02-06T04:50:03.205Z,0
2017-02-06T04:51:03.550Z,0
2017-02-06T04:52:02.693Z,0
2017-02-06T04:53:03.401Z,0
2017-02-06T04:54:02.952Z,0
2017-02-06T04:55:02.891Z,0
2017-02-06T04:56:03.297Z,0
2017-02-06T04:57:03.156Z,0
2017-02-06T04:58:03.093Z,0
2017-02-06T04:59:03.039Z,0
2017-02-06T05:00:02.584Z,0
2017-02-06T05:01:02.957Z,0
2017-02-06T05:02:07.192Z,0
2017-02-06T05:03:02.771Z,0
2017-02-06T05:04:02.323Z,0
2017-02-06T05:05:02.259Z,0
2017-02-06T05:06:02.596Z,0
2017-02-06T05:07:02.523Z,0
2017-02-06T05:08:02.069Z,0
2017-02-06T05:09:02.392Z,0
2017-02-06T05:10:01.941Z,0
2017-02-06T05:11:01.903Z,0
2017-02-06T05:12:02.212Z,0
2017-02-06T05:13:01.754Z,0
2017-02-06T05:14:01.692Z,0
2017-02-06T05:15:02.017Z,0
2017-02-06T05:16:01.953Z,0
2017-02-06T05:17:01.494Z,0
2017-02-06T05:18:01.827Z,0
2017-02-06T05:19:01.760Z,0
2017-02-06T05:20:01.334Z,0
2017-02-06T05:21:01.683Z,0
2017-02-06T05:22:01.570Z,0
2017-02-06T05:23:01.508Z,0
2017-02-06T05:24:01.058Z,0
2017-02-06T05:25:01.007Z,0
2017-02-06T05:26:00.933Z,0
2017-02-06T05:27:00.862Z,0
2017-02-06T05:28:01.003Z,0
2017-02-06T05:29:00.737Z,0
2017-02-06T05:30:01.100Z,0
2017-02-06T05:31:00.222Z,0
2017-02-06T05:32:00.160Z,0
2017-02-06T05:32:59.708Z,0
2017-02-06T05:34:00.851Z,0
2017-02-06T05:35:00.385Z,0
2017-02-06T05:35:59.918Z,0
2017-02-06T05:37:00.231Z,0
2017-02-06T05:37:59.782Z,0
2017-02-06T05:39:00.108Z,0
2017-02-06T05:40:00.042Z,0
2017-02-06T05:41:00.368Z,0
2017-02-06T05:41:59.917Z,0
2017-02-06T05:42:59.891Z,0
2017-02-06T05:43:59.816Z,0
2017-02-06T05:44:59.596Z,0
2017-02-06T05:46:00.061Z,0
2017-02-06T05:46:59.603Z,0
2017-02-06T05:47:59.921Z,0
2017-02-06T05:48:59.468Z,0
2017-02-06T05:49:59.793Z,0
2017-02-06T05:50:59.345Z,0
2017-02-06T05:51:59.281Z,0
2017-02-06T05:52:59.227Z,0
2017-02-06T05:53:59.155Z,0
2017-02-06T05:54:59.481Z,0
2017-02-06T05:55:59.069Z,0
2017-02-06T05:56:58.966Z,0
2017-02-06T05:57:58.121Z,0
2017-02-06T05:58:58.837Z,0
2017-02-06T05:59:58.776Z,0
2017-02-06T06:00:59.100Z,0
2017-02-06T06:01:58.648Z,0
2017-02-06T06:02:58.198Z,0
2017-02-06T06:03:58.915Z,0
2017-02-06T06:04:58.537Z,0
2017-02-06T06:05:58.400Z,0
2017-02-06T06:06:58.759Z,0
2017-02-06T06:07:58.274Z,0
2017-02-06T06:08:58.206Z,0
2017-02-06T06:09:58.148Z,0
2017-02-06T06:10:58.082Z,0
2017-02-06T06:11:58.014Z,0
2017-02-06T06:12:58.350Z,0
2017-02-06T06:13:57.511Z,0
2017-02-06T06:14:58.244Z,0
2017-02-06T06:15:57.767Z,0
2017-02-06T06:16:58.093Z,0
2017-02-06T06:17:57.636Z,0
2017-02-06T06:18:57.577Z,0
2017-02-06T06:19:57.962Z,0
2017-02-06T06:20:57.850Z,0
2017-02-06T06:21:57.379Z,0
2017-02-06T06:22:56.930Z,0
2017-02-06T06:23:57.257Z,0
2017-02-06T06:24:57.191Z,0
2017-02-06T06:25:57.130Z,0
2017-02-06T06:26:57.069Z,0
2017-02-06T06:27:57.397Z,0
2017-02-06T06:28:57.372Z,0
2017-02-06T06:29:56.491Z,0
2017-02-06T06:30:56.425Z,0
2017-02-06T06:31:57.141Z,0
2017-02-06T06:32:55.906Z,0
2017-02-06T06:33:57.029Z,0
2017-02-06T06:34:56.558Z,0
2017-02-06T06:35:56.504Z,0
2017-02-06T06:36:56.051Z,0
2017-02-06T06:37:56.376Z,0
2017-02-06T06:38:56.311Z,0
2017-02-06T06:39:56.636Z,0
2017-02-06T06:40:56.188Z,0
2017-02-06T06:41:55.727Z,0
2017-02-06T06:42:56.125Z,0
2017-02-06T06:43:55.212Z,4
2017-02-06T06:44:56.340Z,4
2017-02-06T06:45:55.858Z,4
2017-02-06T06:46:56.191Z,4
2017-02-06T06:47:55.765Z,4
2017-02-06T06:48:55.672Z,4
2017-02-06T06:49:56.000Z,4
2017-02-06T06:50:55.934Z,4
2017-02-06T06:51:55.871Z,4
2017-02-06T06:52:55.420Z,4
2017-02-06T06:53:54.965Z,4
2017-02-06T06:54:55.292Z,4
2017-02-06T06:55:55.230Z,4
2017-02-06T06:56:55.188Z,4
2017-02-06T06:57:55.101Z,4
2017-02-06T06:58:54.647Z,4
2017-02-06T06:59:54.976Z,4
2017-02-06T07:00:55.117Z,4
2017-02-06T07:01:55.245Z,4
2017-02-06T07:02:54.398Z,4
2017-02-06T07:03:54.725Z,4
2017-02-06T07:04:54.664Z,4
2017-02-06T07:05:54.984Z,4
2017-02-06T07:06:54.343Z,4
2017-02-06T07:07:54.878Z,4
2017-02-06T07:08:54.401Z,4
2017-02-06T07:09:54.728Z,4
2017-02-06T07:10:54.667Z,8
2017-02-06T07:11:54.215Z,8
2017-02-06T07:12:53.766Z,8
2017-02-06T07:13:53.693Z,8
2017-02-06T07:14:54.431Z,8
2017-02-06T07:15:54.353Z,8
2017-02-06T07:16:53.903Z,8
2017-02-06T07:17:53.832Z,8
2017-02-06T07:18:54.158Z,8
2017-02-06T07:19:53.704Z,8
2017-02-06T07:20:54.038Z,8
2017-02-06T07:21:52.802Z,8
2017-02-06T07:22:53.129Z,8
2017-02-06T07:23:53.454Z,8
2017-02-06T07:24:53.390Z,8
2017-02-06T07:25:53.719Z,8
2017-02-06T07:26:53.266Z,8
2017-02-06T07:27:52.812Z,8
2017-02-06T07:28:52.753Z,8
2017-02-06T07:29:53.462Z,8
2017-02-06T07:30:53.033Z,8
2017-02-06T07:31:52.220Z,8
2017-02-06T07:32:53.280Z,8
2017-02-06T07:33:52.442Z,8
2017-02-06T07:34:52.766Z,8
2017-02-06T07:35:52.357Z,8
2017-02-06T07:36:53.017Z,8
2017-02-06T07:37:52.565Z,8
2017-02-06T07:38:52.115Z,8
2017-02-06T07:39:52.644Z,8
2017-02-06T07:40:52.377Z,8
2017-02-06T07:41:52.317Z,8
2017-02-06T07:42:52.638Z,8
2017-02-06T07:43:52.571Z,8
2017-02-06T07:44:52.122Z,8
2017-02-06T07:45:52.453Z,8
2017-02-06T07:46:52.384Z,8
2017-02-06T07:47:52.324Z,8
2017-02-06T07:48:51.867Z,8
2017-02-06T07:49:52.195Z,8
2017-02-06T07:50:51.742Z,8
2017-02-06T07:51:52.280Z,8
2017-02-06T07:52:51.619Z,12
2017-02-06T07:53:51.553Z,12
2017-02-06T07:54:51.881Z,8
2017-02-06T07:55:51.425Z,8
2017-02-06T07:56:51.751Z,8
2017-02-06T07:57:51.688Z,8
2017-02-06T07:58:51.242Z,8
2017-02-06T07:59:51.173Z,8
2017-02-06T08:00:51.570Z,8
2017-02-06T08:01:51.044Z,8
2017-02-06T08:02:50.592Z,8
2017-02-06T08:03:50.927Z,8
2017-02-06T08:04:50.860Z,8
2017-02-06T08:05:51.238Z,8
2017-02-06T08:06:51.138Z,12
2017-02-06T08:07:51.059Z,12
2017-02-06T08:08:50.212Z,12
2017-02-06T08:09:50.927Z,12
2017-02-06T08:10:50.872Z,12
2017-02-06T08:11:50.808Z,12
2017-02-06T08:12:51.147Z,12
2017-02-06T08:13:49.898Z,8
2017-02-06T08:14:50.221Z,8
2017-02-06T08:15:50.163Z,8
2017-02-06T08:16:49.707Z,8
2017-02-06T08:17:50.032Z,8
2017-02-06T08:18:49.967Z,8
2017-02-06T08:19:50.313Z,8
2017-02-06T08:20:49.512Z,8
2017-02-06T08:21:49.775Z,8
2017-02-06T08:22:50.104Z,8
2017-02-06T08:23:49.649Z,8
2017-02-06T08:24:49.202Z,8
2017-02-06T08:25:49.916Z,8
2017-02-06T08:26:49.079Z,8
2017-02-06T08:27:49.793Z,8
2017-02-06T08:28:49.722Z,8
2017-02-06T08:29:49.661Z,8
2017-02-06T08:30:49.208Z,8
2017-02-06T08:31:49.149Z,8
2017-02-06T08:32:48.690Z,100
2017-02-06T08:33:49.404Z,140
2017-02-06T08:34:49.407Z,152
2017-02-06T08:35:48.892Z,156
2017-02-06T08:36:48.435Z,152
2017-02-06T08:37:48.766Z,152
2017-02-06T08:38:49.089Z,156
2017-02-06T08:39:49.022Z,156
2017-02-06T08:40:47.795Z,152
2017-02-06T08:41:48.122Z,152
2017-02-06T08:42:48.835Z,152
2017-02-06T08:43:48.772Z,152
2017-02-06T08:44:48.706Z,152
2017-02-06T08:45:48.642Z,152
2017-02-06T08:46:48.576Z,152
2017-02-06T08:47:48.128Z,152
2017-02-06T08:48:48.060Z,152
2017-02-06T08:49:48.385Z,152
2017-02-06T08:50:48.328Z,152
2017-02-06T08:51:47.893Z,152
2017-02-06T08:52:48.198Z,152
2017-02-06T08:53:48.127Z,148
2017-02-06T08:54:47.679Z,148
2017-02-06T08:55:48.304Z,148
2017-02-06T08:56:46.778Z,152
2017-02-06T08:57:47.894Z,148
2017-02-06T08:58:47.828Z,152
2017-02-06T08:59:47.434Z,152
2017-02-06T09:00:48.214Z,152
2017-02-06T09:01:47.728Z,152
2017-02-06T09:02:47.316Z,148
2017-02-06T09:03:47.130Z,148
2017-02-06T09:04:46.666Z,152
2017-02-06T09:05:47.246Z,148
2017-02-06T09:06:47.444Z,148
2017-02-06T09:07:46.855Z,148
2017-02-06T09:08:46.825Z,148
2017-02-06T09:09:46.726Z,148
2017-02-06T09:10:46.323Z,148
2017-02-06T09:11:46.610Z,148
2017-02-06T09:12:46.549Z,148
2017-02-06T09:13:46.102Z,152
2017-02-06T09:14:46.469Z,152
2017-02-06T09:15:46.748Z,152
2017-02-06T09:16:46.683Z,152
2017-02-06T09:17:46.226Z,148
2017-02-06T09:18:46.176Z,152
2017-02-06T09:19:45.708Z,152
2017-02-06T09:20:46.048Z,152
2017-02-06T09:21:46.360Z,152
2017-02-06T09:22:45.919Z,152
2017-02-06T09:23:45.846Z,12
2017-02-06T09:24:45.403Z,8
2017-02-06T09:25:45.328Z,12
2017-02-06T09:26:45.657Z,12
2017-02-06T09:27:45.983Z,12
2017-02-06T09:28:45.142Z,16
2017-02-06T09:29:45.853Z,12
2017-02-06T09:30:45.794Z,12
2017-02-06T09:31:45.738Z,12
2017-02-06T09:32:45.272Z,12
2017-02-06T09:33:45.603Z,12
2017-02-06T09:34:45.555Z,12
2017-02-06T09:35:45.474Z,12
2017-02-06T09:36:45.412Z,8
2017-02-06T09:37:44.965Z,12
2017-02-06T09:38:45.190Z,12
2017-02-06T09:39:44.833Z,12
2017-02-06T09:40:43.985Z,12
2017-02-06T09:41:44.716Z,12
2017-02-06T09:42:44.639Z,12
2017-02-06T09:43:44.990Z,16
2017-02-06T09:44:44.138Z,16
2017-02-06T09:45:44.497Z,16
2017-02-06T09:46:44.392Z,12
2017-02-06T09:47:44.731Z,12
2017-02-06T09:48:43.886Z,12
2017-02-06T09:49:44.219Z,16
2017-02-06T09:50:44.536Z,16
2017-02-06T09:51:44.087Z,16
2017-02-06T09:52:44.176Z,16
2017-02-06T09:53:44.336Z,12
2017-02-06T09:54:43.892Z,12
2017-02-06T09:55:43.829Z,12
2017-02-06T09:56:44.164Z,16
2017-02-06T09:57:44.097Z,12
2017-02-06T09:58:43.644Z,12
2017-02-06T09:59:43.599Z,12
2017-02-06T10:00:43.117Z,116
2017-02-06T10:01:43.154Z,140
2017-02-06T10:02:54.079Z,156
2017-02-06T10:03:43.364Z,156
2017-02-06T10:04:43.257Z,160
2017-02-06T10:05:43.193Z,156
2017-02-06T10:06:43.139Z,156
2017-02-06T10:07:43.169Z,152
2017-02-06T10:08:43.507Z,152
2017-02-06T10:09:43.366Z,156
2017-02-06T10:10:43.278Z,152
2017-02-06T10:11:43.256Z,152
2017-02-06T10:12:42.995Z,152
2017-02-06T10:13:42.945Z,148
2017-02-06T10:14:42.647Z,148
2017-02-06T10:15:43.036Z,152
2017-02-06T10:16:42.545Z,152
2017-02-06T10:17:42.508Z,152
2017-02-06T10:18:42.861Z,152
2017-02-06T10:19:42.371Z,152
2017-02-06T10:20:42.489Z,152
2017-02-06T10:21:41.778Z,152
2017-02-06T10:22:42.157Z,152
2017-02-06T10:23:42.071Z,148
2017-02-06T10:24:42.471Z,148
2017-02-06T10:25:42.180Z,148
2017-02-06T10:26:41.855Z,148
2017-02-06T10:27:41.401Z,152
2017-02-06T10:28:41.730Z,152
2017-02-06T10:29:41.668Z,148
2017-02-06T10:30:41.215Z,148
2017-02-06T10:31:41.544Z,148
2017-02-06T10:32:41.486Z,152
2017-02-06T10:33:41.699Z,148
2017-02-06T10:34:41.347Z,148
2017-02-06T10:35:40.896Z,152
2017-02-06T10:36:41.226Z,152
2017-02-06T10:37:41.169Z,152
2017-02-06T10:38:40.718Z,148
2017-02-06T10:39:41.438Z,12
2017-02-06T10:40:40.584Z,12
2017-02-06T10:41:41.292Z,12
2017-02-06T10:42:41.231Z,12
2017-02-06T10:43:41.223Z,12
2017-02-06T10:44:41.142Z,12
2017-02-06T10:45:40.658Z,12
2017-02-06T10:46:41.021Z,12
2017-02-06T10:47:40.594Z,12
2017-02-06T10:48:40.131Z,12
2017-02-06T10:49:40.435Z,12
2017-02-06T10:50:40.651Z,12
2017-02-06T10:51:40.665Z,12
2017-02-06T10:52:40.221Z,12
2017-02-06T10:53:40.144Z,12
2017-02-06T10:54:40.087Z,12
2017-02-06T10:55:40.667Z,12
2017-02-06T10:56:39.959Z,12
2017-02-06T10:57:40.371Z,12
2017-02-06T10:58:39.852Z,12
2017-02-06T10:59:39.386Z,12
2017-02-06T11:00:40.094Z,12
2017-02-06T11:01:39.649Z,12
2017-02-06T11:02:39.190Z,12
2017-02-06T11:03:39.935Z,12
2017-02-06T11:04:39.109Z,12
2017-02-06T11:05:38.736Z,12
2017-02-06T11:06:39.320Z,8
2017-02-06T11:07:39.316Z,12
2017-02-06T11:08:38.812Z,8
2017-02-06T11:09:39.532Z,12
2017-02-06T11:10:39.463Z,8
2017-02-06T11:11:39.422Z,8
2017-02-06T11:12:39.353Z,12
2017-02-06T11:13:39.271Z,8
2017-02-06T11:14:38.834Z,12
2017-02-06T11:15:38.797Z,12
2017-02-06T11:16:39.086Z,12
2017-02-06T11:17:39.027Z,12
2017-02-06T11:18:38.961Z,12
2017-02-06T11:19:38.896Z,12
2017-02-06T11:20:38.122Z,12
2017-02-06T11:21:38.768Z,12
2017-02-06T11:22:38.079Z,12
2017-02-06T11:23:37.883Z,12
2017-02-06T11:24:38.206Z,12
2017-02-06T11:25:38.954Z,12
2017-02-06T11:26:37.699Z,12
2017-02-06T11:27:38.133Z,12
2017-02-06T11:28:37.570Z,12
2017-02-06T11:29:37.879Z,12
2017-02-06T11:30:37.424Z,12
2017-02-06T11:31:37.766Z,12
2017-02-06T11:32:37.686Z,12
2017-02-06T11:33:38.104Z,12
2017-02-06T11:34:37.276Z,12
2017-02-06T11:35:38.041Z,12
2017-02-06T11:36:37.677Z,8
2017-02-06T11:37:37.453Z,8
2017-02-06T11:38:37.059Z,12
2017-02-06T11:39:37.677Z,12
2017-02-06T11:40:37.215Z,8
2017-02-06T11:41:37.529Z,8
2017-02-06T11:42:36.949Z,12
2017-02-06T11:43:37.399Z,12
2017-02-06T11:44:37.351Z,12
2017-02-06T11:45:36.745Z,16
2017-02-06T11:46:36.021Z,16
2017-02-06T11:47:37.316Z,16
2017-02-06T11:48:36.713Z,16
2017-02-06T11:49:36.634Z,16
2017-02-06T11:50:36.545Z,16
2017-02-06T11:51:36.910Z,16
2017-02-06T11:52:36.507Z,16
2017-02-06T11:53:36.417Z,16
2017-02-06T11:54:36.403Z,12
2017-02-06T11:55:35.917Z,16
2017-02-06T11:56:36.171Z,16
2017-02-06T11:57:36.195Z,16
2017-02-06T11:58:35.285Z,16
2017-02-06T11:59:36.406Z,12
2017-02-06T12:00:35.646Z,12
2017-02-06T12:01:36.320Z,12
2017-02-06T12:02:35.400Z,16
2017-02-06T12:03:35.737Z,16
2017-02-06T12:04:35.803Z,16
2017-02-06T12:05:35.699Z,12
2017-02-06T12:06:35.598Z,12
2017-02-06T12:07:35.084Z,16
2017-02-06T12:08:35.410Z,16
2017-02-06T12:09:35.354Z,16
2017-02-06T12:10:35.717Z,16
2017-02-06T12:11:35.753Z,12
2017-02-06T12:12:35.157Z,12
2017-02-06T12:13:35.154Z,12
2017-02-06T12:14:35.441Z,12
2017-02-06T12:15:35.080Z,12
2017-02-06T12:16:35.003Z,12
2017-02-06T12:17:35.304Z,12
2017-02-06T12:18:34.808Z,12
2017-02-06T12:19:34.715Z,12
2017-02-06T12:20:34.653Z,12
2017-02-06T12:21:34.997Z,12
2017-02-06T12:22:34.915Z,12
2017-02-06T12:23:34.604Z,12
2017-02-06T12:24:34.812Z,12
2017-02-06T12:25:33.952Z,12
2017-02-06T12:26:34.362Z,12
2017-02-06T12:27:34.209Z,12
2017-02-06T12:28:34.532Z,12
2017-02-06T12:29:33.304Z,12
2017-02-06T12:30:34.695Z,12
2017-02-06T12:31:33.581Z,12
2017-02-06T12:32:33.892Z,12
2017-02-06T12:33:34.511Z,12
2017-02-06T12:34:33.867Z,12
2017-02-06T12:35:33.703Z,12
2017-02-06T12:36:32.917Z,12
2017-02-06T12:37:33.964Z,12
2017-02-06T12:38:33.533Z,12
2017-02-06T12:39:33.471Z,12
2017-02-06T12:40:33.780Z,12
2017-02-06T12:41:33.329Z,12
2017-02-06T12:42:33.263Z,12
2017-02-06T12:43:33.615Z,12
2017-02-06T12:44:33.190Z,12
2017-02-06T12:45:32.951Z,12
2017-02-06T12:46:33.464Z,12
2017-02-06T12:47:32.945Z,12
2017-02-06T12:48:32.105Z,12
2017-02-06T12:49:32.483Z,12
2017-02-06T12:50:32.434Z,8
2017-02-06T12:51:32.695Z,12
2017-02-06T12:52:32.629Z,12
2017-02-06T12:53:32.621Z,12
2017-02-06T12:54:32.214Z,12
2017-02-06T12:55:32.915Z,12
2017-02-06T12:56:32.821Z,12
2017-02-06T12:57:32.328Z,12
2017-02-06T12:58:32.304Z,12
2017-02-06T12:59:32.573Z,12
2017-02-06T13:00:32.594Z,12
2017-02-06T13:01:32.493Z,12
2017-02-06T13:02:31.640Z,12
2017-02-06T13:03:32.619Z,12
2017-02-06T13:04:31.478Z,12
2017-02-06T13:05:32.249Z,12
2017-02-06T13:06:32.135Z,12
2017-02-06T13:07:31.678Z,12
2017-02-06T13:08:30.998Z,12
2017-02-06T13:09:31.955Z,12
2017-02-06T13:10:31.107Z,12
2017-02-06T13:11:31.032Z,12
2017-02-06T13:12:31.783Z,12
2017-02-06T13:13:31.315Z,12
2017-02-06T13:14:31.255Z,12
2017-02-06T13:15:30.879Z,12
2017-02-06T13:16:31.496Z,12
2017-02-06T13:17:31.057Z,12
2017-02-06T13:18:31.392Z,12
2017-02-06T13:19:30.925Z,16
2017-02-06T13:20:31.248Z,16
2017-02-06T13:21:31.215Z,12
2017-02-06T13:22:31.121Z,12
2017-02-06T13:23:30.672Z,12
2017-02-06T13:24:30.291Z,12
2017-02-06T13:25:30.935Z,12
2017-02-06T13:26:30.474Z,12
2017-02-06T13:27:30.522Z,12
2017-02-06T13:28:30.350Z,12
2017-02-06T13:29:30.762Z,12
2017-02-06T13:30:30.766Z,12
2017-02-06T13:31:29.768Z,12
2017-02-06T13:32:30.126Z,12
2017-02-06T13:33:30.030Z,12
2017-02-06T13:34:30.357Z,12
2017-02-06T13:35:30.299Z,12
2017-02-06T13:36:29.454Z,12
2017-02-06T13:37:29.391Z,12
2017-02-06T13:38:30.120Z,12
2017-02-06T13:39:29.650Z,12
2017-02-06T13:40:29.583Z,8
2017-02-06T13:41:29.822Z,12
2017-02-06T13:42:29.081Z,12
2017-02-06T13:43:29.411Z,12
2017-02-06T13:44:29.342Z,12
2017-02-06T13:45:29.308Z,12
2017-02-06T13:46:29.603Z,12
2017-02-06T13:47:29.196Z,12
2017-02-06T13:48:29.097Z,12
2017-02-06T13:49:29.313Z,12
2017-02-06T13:50:28.962Z,12
2017-02-06T13:51:29.325Z,12
2017-02-06T13:52:29.221Z,12
2017-02-06T13:53:29.170Z,12
2017-02-06T13:54:29.149Z,12
2017-02-06T13:55:28.644Z,12
2017-02-06T13:56:28.977Z,12
2017-02-06T13:57:28.132Z,12
2017-02-06T13:58:28.864Z,12
2017-02-06T13:59:28.040Z,12
2017-02-06T14:00:28.341Z,8
2017-02-06T14:01:28.259Z,8
2017-02-06T14:02:28.278Z,8
2017-02-06T14:03:37.620Z,8
2017-02-06T14:04:28.111Z,8
2017-02-06T14:05:28.419Z,8
2017-02-06T14:06:27.966Z,8
2017-02-06T14:07:27.891Z,8
2017-02-06T14:08:28.340Z,8
2017-02-06T14:09:27.761Z,8
2017-02-06T14:10:27.462Z,8
2017-02-06T14:11:28.019Z,8
2017-02-06T14:12:27.201Z,8
2017-02-06T14:13:27.913Z,8
2017-02-06T14:14:27.832Z,8
2017-02-06T14:15:27.406Z,8
2017-02-06T14:16:26.927Z,8
2017-02-06T14:17:27.635Z,8
2017-02-06T14:18:27.291Z,8
2017-02-06T14:19:27.156Z,8
2017-02-06T14:20:26.667Z,8
2017-02-06T14:21:27.292Z,8
2017-02-06T14:22:27.352Z,8
2017-02-06T14:23:26.876Z,8
2017-02-06T14:24:26.426Z,8
2017-02-06T14:25:26.369Z,8
2017-02-06T14:26:26.696Z,8
2017-02-06T14:27:26.636Z,8
2017-02-06T14:28:26.955Z,8
2017-02-06T14:29:26.494Z,8
2017-02-06T14:30:25.657Z,12
2017-02-06T14:31:25.976Z,12
2017-02-06T14:32:26.312Z,12